createdAt,value
2024-04-25T15:33:49.785Z,7.22
2024-04-25T15:36:19.081Z,8.85
2024-04-25T15:38:48.503Z,6.05
2024-04-25T15:41:17.774Z,6.60
2024-04-25T15:43:47.029Z,12.07
2024-04-25T15:46:17.072Z,10.30
2024-04-25T15:48:46.538Z,10.77
2024-04-25T15:53:47.798Z,5.93
2024-04-25T15:56:17.197Z,7.65
2024-04-25T15:58:47.170Z,10.38
2024-04-25T16:01:16.471Z,8.02
2024-04-25T16:03:46.139Z,4.90
2024-04-25T16:08:47.217Z,2.53
2024-04-25T16:11:16.542Z,7.07
2024-04-25T16:13:45.831Z,5.55
2024-04-25T16:16:20.208Z,5.00
2024-04-25T16:18:50.994Z,6.60
2024-04-25T16:21:20.235Z,6.70
2024-04-25T16:23:52.086Z,5.32
2024-04-25T16:26:23.866Z,4.30
2024-04-25T16:28:53.173Z,3.35
2024-04-25T16:31:22.406Z,5.95
2024-04-25T16:33:51.670Z,4.32
2024-04-25T16:36:26.819Z,3.40
2024-04-25T16:38:58.798Z,5.93
2024-04-25T16:41:28.003Z,6.25
2024-04-25T16:43:57.339Z,6.00
2024-04-25T16:46:26.529Z,8.95
2024-04-25T16:48:55.745Z,8.95
2024-04-25T16:51:26.747Z,10.20
2024-04-25T16:53:58.607Z,7.50
2024-04-25T16:56:27.887Z,8.63
2024-04-25T16:58:57.529Z,11.65
2024-04-25T17:01:26.741Z,11.75
2024-04-25T17:03:56.048Z,11.20
2024-04-25T17:06:25.481Z,11.25
2024-04-25T17:08:54.912Z,12.77
2024-04-25T17:11:29.040Z,14.02
2024-04-25T17:14:00.786Z,11.93
2024-04-25T17:16:30.413Z,10.18
2024-04-25T17:19:00.179Z,10.82
2024-04-25T17:21:29.474Z,11.47
2024-04-25T17:24:00.821Z,12.23
2024-04-25T17:26:33.021Z,8.55
2024-04-25T17:29:03.655Z,11.02
2024-04-25T17:31:33.064Z,10.55
2024-04-25T17:34:02.412Z,8.75
2024-04-25T17:36:31.841Z,9.93
2024-04-25T17:39:01.317Z,7.20
2024-04-25T17:41:33.232Z,8.02
2024-04-25T17:44:02.460Z,6.47
2024-04-25T17:46:31.711Z,7.22
2024-04-25T17:49:01.090Z,4.90
2024-04-25T17:51:36.336Z,5.63
2024-04-25T17:54:05.637Z,5.40
2024-04-25T17:56:38.958Z,7.03
2024-04-25T17:59:08.209Z,5.00
2024-04-25T18:01:40.251Z,5.83
2024-04-25T18:04:09.469Z,6.93
2024-04-25T18:06:38.700Z,5.93
2024-04-25T18:09:08.297Z,5.00
2024-04-25T18:11:40.272Z,6.55
2024-04-25T18:14:09.710Z,5.53
2024-04-25T18:16:38.933Z,5.27
2024-04-25T18:19:08.374Z,4.22
2024-04-25T18:21:37.724Z,5.60
2024-04-25T18:24:09.586Z,5.13
2024-04-25T18:26:41.685Z,3.95
2024-04-25T18:29:12.155Z,3.90
2024-04-25T18:31:41.370Z,3.57
2024-04-25T18:34:10.611Z,4.35
2024-04-25T18:36:39.840Z,3.70
2024-04-25T18:39:12.026Z,3.27
2024-04-25T18:41:43.943Z,4.30
2024-04-25T18:44:10.600Z,3.50
2024-04-25T18:46:39.849Z,3.80
2024-04-25T18:49:10.080Z,4.78
2024-04-25T18:51:39.739Z,4.50
2024-04-25T18:54:09.400Z,4.50
2024-04-25T18:56:38.715Z,4.57
2024-04-25T18:59:10.652Z,6.88
2024-04-25T19:01:39.867Z,4.80
2024-04-25T19:04:09.077Z,4.40
2024-04-25T19:06:38.301Z,3.80
2024-04-25T19:09:09.558Z,2.83
2024-04-25T19:11:41.772Z,3.38
2024-04-25T19:14:13.713Z,4.33
2024-04-25T19:16:43.017Z,4.57
2024-04-25T19:19:12.649Z,4.27
2024-04-25T19:21:43.536Z,4.32
2024-04-25T19:24:12.854Z,5.30
2024-04-25T19:26:42.157Z,5.95
2024-04-25T19:29:16.474Z,7.65
2024-04-25T19:31:46.147Z,4.80
2024-04-25T19:34:20.471Z,7.40
2024-04-25T19:36:51.006Z,6.88
2024-04-25T19:39:20.324Z,6.47
2024-04-25T19:41:50.648Z,7.57
2024-04-25T19:44:23.393Z,6.93
2024-04-25T19:46:53.613Z,7.03
2024-04-25T19:49:22.875Z,6.03
2024-04-25T19:51:52.569Z,7.57
2024-04-25T19:54:22.038Z,9.60
2024-04-25T19:56:51.419Z,8.68
2024-04-25T19:59:23.328Z,10.20
2024-04-25T20:01:52.957Z,10.40
2024-04-25T20:04:22.722Z,10.27
2024-04-25T20:06:52.848Z,10.20
2024-04-25T20:09:22.568Z,12.23
2024-04-25T20:11:51.863Z,11.95
2024-04-25T20:14:23.759Z,12.73
2024-04-25T20:16:53.021Z,12.68
2024-04-25T20:19:38.365Z,11.33
2024-04-25T20:22:07.590Z,14.73
2024-04-25T20:24:36.823Z,15.27
2024-04-25T20:27:06.232Z,19.63
2024-04-25T20:29:38.513Z,17.63
2024-04-25T20:32:07.921Z,17.88
2024-04-25T20:34:40.428Z,19.00
2024-04-25T20:37:09.672Z,20.08
2024-04-25T20:39:39.497Z,18.30
2024-04-25T20:42:10.349Z,18.33
2024-04-25T20:44:42.237Z,17.05
2024-04-25T20:47:11.487Z,22.67
2024-04-25T20:49:40.804Z,20.85
2024-04-25T20:52:10.047Z,20.90
2024-04-25T20:54:39.281Z,22.27
2024-04-25T20:57:08.674Z,22.83
2024-04-25T20:59:37.965Z,20.98
2024-04-25T21:02:10.589Z,20.77
2024-04-25T21:04:39.923Z,20.27
2024-04-25T21:07:09.409Z,21.37
2024-04-25T21:09:38.666Z,24.38
2024-04-25T21:12:08.289Z,23.02
2024-04-25T21:14:39.228Z,25.40
2024-04-25T21:17:12.865Z,25.17
2024-04-25T21:19:42.938Z,26.60
2024-04-25T21:22:12.175Z,24.98
2024-04-25T21:24:41.920Z,26.10
2024-04-25T21:27:11.170Z,27.25
2024-04-25T21:29:40.387Z,29.02
2024-04-25T21:32:12.314Z,26.60
2024-04-25T21:34:41.552Z,25.50
2024-04-25T21:37:10.771Z,27.52
2024-04-25T21:39:40.089Z,24.55
2024-04-25T21:42:10.249Z,23.92
2024-04-25T21:44:39.618Z,23.02
2024-04-25T21:47:09.199Z,21.67
2024-04-25T21:49:41.061Z,23.05
2024-04-25T21:52:10.349Z,19.58
2024-04-25T21:54:39.571Z,20.33
2024-04-25T21:57:09.829Z,19.17
2024-04-25T21:59:40.970Z,18.95
2024-04-25T22:02:10.220Z,16.30
2024-04-25T22:04:42.089Z,14.75
2024-04-25T22:07:11.305Z,17.93
2024-04-25T22:09:40.540Z,17.10
2024-04-25T22:12:11.659Z,14.13
2024-04-25T22:14:41.210Z,14.20
2024-04-25T22:17:10.546Z,14.93
2024-04-25T22:19:42.384Z,13.07
2024-04-25T22:22:11.618Z,13.50
2024-04-25T22:24:41.255Z,12.07
2024-04-25T22:27:10.487Z,12.68
2024-04-25T22:29:39.807Z,11.38
2024-04-25T22:32:09.350Z,12.45
2024-04-25T22:34:39.486Z,9.75
2024-04-25T22:37:11.426Z,11.27
2024-04-25T22:39:40.721Z,11.02
2024-04-25T22:42:10.090Z,12.65
2024-04-25T22:44:39.349Z,9.93
2024-04-25T22:47:08.974Z,11.63
2024-04-25T22:49:38.275Z,10.57
2024-04-25T22:52:07.693Z,9.45
2024-04-25T22:54:39.582Z,9.23
2024-04-25T22:57:09.074Z,10.35
2024-04-25T22:59:38.408Z,6.63
2024-04-25T23:02:07.758Z,8.60
2024-04-25T23:04:37.337Z,10.95
2024-04-25T23:07:06.684Z,8.57
2024-04-25T23:09:38.725Z,7.83
2024-04-25T23:12:09.516Z,7.00
2024-04-25T23:14:39.242Z,7.28
2024-04-25T23:17:08.991Z,8.70
2024-04-25T23:19:38.264Z,9.53
2024-04-25T23:22:07.673Z,6.15
2024-04-25T23:24:39.605Z,7.25
2024-04-25T23:27:08.931Z,7.40
2024-04-25T23:29:38.190Z,6.15
2024-04-25T23:32:07.767Z,7.72
2024-04-25T23:34:34.450Z,6.45
2024-04-25T23:37:03.788Z,7.72
2024-04-25T23:39:35.990Z,8.18
2024-04-25T23:42:08.248Z,4.68
2024-04-25T23:44:37.564Z,7.23
2024-04-25T23:47:07.108Z,7.28
2024-04-25T23:49:36.487Z,7.82
2024-04-25T23:52:05.752Z,9.45
2024-04-25T23:54:35.056Z,5.88
2024-04-25T23:57:04.306Z,5.43
2024-04-25T23:59:36.233Z,6.65
